STS Pogoria — SQKY — position and weather

sailwx.info

Track history (hours):
 
Tides and Currents Weather Stations Pressure Air Temp Water Temp Dewpoint Dewpoint Depression Visibility Wind Speed Wind Dir Waves Ship Positions

STS Pogoria

Last reported at 2020-Aug-07 06:30 UTC. Time now 2020-Aug-07 08:50 UTC.
Position N 54°35' E 018°47'.

Length 47 m.

Type: Sailing vessel. MMSI: 261146000.

Date/timePositionNaut miles runAvg speedWind from/ knotsBaromVisibWave heightAir tempDewpointWater temp
2020-Aug-07 06:30N 54°35' E 018°47'2 1.2
2020-Aug-07 05:00N 54°35' E 018°50'1 1.9
2020-Aug-07 04:30N 54°36' E 018°51'1 1.8
2020-Aug-07 04:00N 54°37' E 018°51'1 1.5
2020-Aug-07 03:30N 54°37' E 018°51'6 2.4
2020-Aug-07 01:00N 54°43' E 018°46'5 3.0
2020-Aug-06 23:30N 54°45' E 018°40'7 3.6
2020-Aug-06 21:30N 54°49' E 018°29'5 3.7
2020-Aug-06 20:00N 54°52' E 018°22'  
2020-Aug-03 17:26N 54°56' E 017°11'56 3.2
2020-Aug-03 00:00N 54°51' E 018°48'10 1.5
2020-Aug-02 17:28N 54°42' E 018°46'4 4.2
2020-Aug-02 16:25N 54°38' E 018°50'11 3.8
2020-Aug-02 13:30N 54°31' E 018°35'1 2.2
2020-Aug-02 13:00N 54°31' E 018°33'0 0.0
2020-Aug-02 12:28N 54°31' E 018°33'0 0.0
2020-Aug-02 10:28N 54°31' E 018°33'0 0.0
2020-Aug-02 09:58N 54°31' E 018°33'0 0.0
2020-Aug-02 06:28N 54°31' E 018°33'0 0.0
2020-Aug-02 04:55N 54°31' E 018°33'0 0.0
2020-Aug-02 04:25N 54°31' E 018°33'0 0.0
2020-Aug-02 03:58N 54°31' E 018°33'0 0.0
2020-Aug-02 02:58N 54°31' E 018°33'0 0.0
2020-Aug-02 01:58N 54°31' E 018°33'0 0.0
2020-Aug-02 00:59N 54°31' E 018°33'0 0.0
2020-Aug-01 22:29N 54°31' E 018°33'0 0.0
2020-Aug-01 15:58N 54°31' E 018°33'0 0.0
2020-Aug-01 13:59N 54°31' E 018°33'0 0.0
2020-Aug-01 11:29N 54°31' E 018°33'0 0.0
2020-Aug-01 09:28N 54°31' E 018°33'0 0.0
2020-Aug-01 05:30N 54°31' E 018°33'0 0.0
2020-Aug-01 03:00N 54°31' E 018°33'0 0.0
2020-Aug-01 02:30N 54°31' E 018°33'0 0.0
2020-Aug-01 00:30N 54°31' E 018°33'0 0.0
2020-Aug-01 00:00N 54°31' E 018°33'0 0.0
2020-Jul-31 21:30N 54°31' E 018°33'0 0.0
2020-Jul-31 18:00N 54°31' E 018°33'0 0.0
2020-Jul-31 15:27N 54°31' E 018°33'0 0.0
2020-Jul-31 12:00N 54°31' E 018°33'0 0.0
2020-Jul-31 10:00N 54°31' E 018°33'0 0.0
2020-Jul-31 06:29N 54°31' E 018°33'0 0.0
2020-Jul-31 05:59N 54°31' E 018°33'0 0.0
2020-Jul-31 04:59N 54°31' E 018°33'0 0.0
2020-Jul-31 03:59N 54°31' E 018°33'0 0.0
2020-Jul-31 01:00N 54°31' E 018°33'0 0.0
2020-Jul-31 00:30N 54°31' E 018°33'0 0.0
2020-Jul-30 22:30N 54°31' E 018°33'0 0.0
2020-Jul-30 21:30N 54°31' E 018°33'0 0.0
2020-Jul-30 20:27N 54°31' E 018°33'0 0.0
2020-Jul-30 19:30N 54°31' E 018°33'0 0.0
2020-Jul-30 13:30N 54°31' E 018°33'0 0.0
2020-Jul-30 10:30N 54°31' E 018°33'0 0.0
2020-Jul-30 09:00N 54°31' E 018°33'0 0.0
2020-Jul-30 08:30N 54°31' E 018°33'0 0.0
2020-Jul-30 05:58N 54°31' E 018°33'0 0.0
2020-Jul-30 03:58N 54°31' E 018°33'0 0.0
2020-Jul-29 21:00N 54°31' E 018°33'0 0.0
2020-Jul-29 20:30N 54°31' E 018°33'0 0.0
2020-Jul-29 19:29N 54°31' E 018°33'0 0.0
2020-Jul-29 17:00N 54°31' E 018°33'0 0.0
2020-Jul-29 16:29N 54°31' E 018°33'0 0.0
2020-Jul-29 15:30N 54°31' E 018°33'0 0.0
2020-Jul-29 14:30N 54°31' E 018°33'0 0.0
2020-Jul-29 09:29N 54°31' E 018°33'0 0.0
2020-Jul-29 04:59N 54°31' E 018°33'0 0.0
2020-Jul-29 02:59N 54°31' E 018°33'0 0.0
2020-Jul-29 00:59N 54°31' E 018°33'0 0.0
2020-Jul-28 23:29N 54°31' E 018°33'0 0.0
2020-Jul-28 19:29N 54°31' E 018°33'0 0.0
2020-Jul-28 16:59N 54°31' E 018°33'0 0.0
2020-Jul-28 14:59N 54°31' E 018°33'0 0.0
2020-Jul-28 12:59N 54°31' E 018°33'0 0.0
2020-Jul-28 11:29N 54°31' E 018°33'0 0.0
2020-Jul-28 10:59N 54°31' E 018°33'0 0.0
2020-Jul-28 10:29N 54°31' E 018°33'0 0.0
2020-Jul-28 09:29N 54°31' E 018°33'  
Track history (hours):
 
Tides and Currents Weather Stations Pressure Air Temp Water Temp Dewpoint Dewpoint Depression Visibility Wind Speed Wind Dir Waves Ship Positions

STS Pogoria

Last reported at 2020-Aug-07 06:30 UTC. Time now 2020-Aug-07 08:50 UTC.
Position N 54°35' E 018°47'.

Length 47 m.

Type: Sailing vessel. MMSI: 261146000.

Date/timePositionNaut miles runAvg speedWind from/ knotsBaromVisibWave heightAir tempDewpointWater temp
2020-Aug-07 06:30N 54°35' E 018°47'2 1.2
2020-Aug-07 05:00N 54°35' E 018°50'1 1.9
2020-Aug-07 04:30N 54°36' E 018°51'1 1.8
2020-Aug-07 04:00N 54°37' E 018°51'1 1.5
2020-Aug-07 03:30N 54°37' E 018°51'6 2.4
2020-Aug-07 01:00N 54°43' E 018°46'5 3.0
2020-Aug-06 23:30N 54°45' E 018°40'7 3.6
2020-Aug-06 21:30N 54°49' E 018°29'5 3.7
2020-Aug-06 20:00N 54°52' E 018°22'  
2020-Aug-03 17:26N 54°56' E 017°11'56 3.2
2020-Aug-03 00:00N 54°51' E 018°48'10 1.5
2020-Aug-02 17:28N 54°42' E 018°46'4 4.2
2020-Aug-02 16:25N 54°38' E 018°50'11 3.8
2020-Aug-02 13:30N 54°31' E 018°35'1 2.2
2020-Aug-02 13:00N 54°31' E 018°33'0 0.0
2020-Aug-02 12:28N 54°31' E 018°33'0 0.0
2020-Aug-02 10:28N 54°31' E 018°33'0 0.0
2020-Aug-02 09:58N 54°31' E 018°33'0 0.0
2020-Aug-02 06:28N 54°31' E 018°33'0 0.0
2020-Aug-02 04:55N 54°31' E 018°33'0 0.0
2020-Aug-02 04:25N 54°31' E 018°33'0 0.0
2020-Aug-02 03:58N 54°31' E 018°33'0 0.0
2020-Aug-02 02:58N 54°31' E 018°33'0 0.0
2020-Aug-02 01:58N 54°31' E 018°33'0 0.0
2020-Aug-02 00:59N 54°31' E 018°33'0 0.0
2020-Aug-01 22:29N 54°31' E 018°33'0 0.0
2020-Aug-01 15:58N 54°31' E 018°33'0 0.0
2020-Aug-01 13:59N 54°31' E 018°33'0 0.0
2020-Aug-01 11:29N 54°31' E 018°33'0 0.0
2020-Aug-01 09:28N 54°31' E 018°33'0 0.0
2020-Aug-01 05:30N 54°31' E 018°33'0 0.0
2020-Aug-01 03:00N 54°31' E 018°33'0 0.0
2020-Aug-01 02:30N 54°31' E 018°33'0 0.0
2020-Aug-01 00:30N 54°31' E 018°33'0 0.0
2020-Aug-01 00:00N 54°31' E 018°33'0 0.0
2020-Jul-31 21:30N 54°31' E 018°33'0 0.0
2020-Jul-31 18:00N 54°31' E 018°33'0 0.0
2020-Jul-31 15:27N 54°31' E 018°33'0 0.0
2020-Jul-31 12:00N 54°31' E 018°33'0 0.0
2020-Jul-31 10:00N 54°31' E 018°33'0 0.0
2020-Jul-31 06:29N 54°31' E 018°33'0 0.0
2020-Jul-31 05:59N 54°31' E 018°33'0 0.0
2020-Jul-31 04:59N 54°31' E 018°33'0 0.0
2020-Jul-31 03:59N 54°31' E 018°33'0 0.0
2020-Jul-31 01:00N 54°31' E 018°33'0 0.0
2020-Jul-31 00:30N 54°31' E 018°33'0 0.0
2020-Jul-30 22:30N 54°31' E 018°33'0 0.0
2020-Jul-30 21:30N 54°31' E 018°33'0 0.0
2020-Jul-30 20:27N 54°31' E 018°33'0 0.0
2020-Jul-30 19:30N 54°31' E 018°33'0 0.0
2020-Jul-30 13:30N 54°31' E 018°33'0 0.0
2020-Jul-30 10:30N 54°31' E 018°33'0 0.0
2020-Jul-30 09:00N 54°31' E 018°33'0 0.0
2020-Jul-30 08:30N 54°31' E 018°33'0 0.0
2020-Jul-30 05:58N 54°31' E 018°33'0 0.0
2020-Jul-30 03:58N 54°31' E 018°33'0 0.0
2020-Jul-29 21:00N 54°31' E 018°33'0 0.0
2020-Jul-29 20:30N 54°31' E 018°33'0 0.0
2020-Jul-29 19:29N 54°31' E 018°33'0 0.0
2020-Jul-29 17:00N 54°31' E 018°33'0 0.0
2020-Jul-29 16:29N 54°31' E 018°33'0 0.0
2020-Jul-29 15:30N 54°31' E 018°33'0 0.0
2020-Jul-29 14:30N 54°31' E 018°33'0 0.0
2020-Jul-29 09:29N 54°31' E 018°33'0 0.0
2020-Jul-29 04:59N 54°31' E 018°33'0 0.0
2020-Jul-29 02:59N 54°31' E 018°33'0 0.0
2020-Jul-29 00:59N 54°31' E 018°33'0 0.0
2020-Jul-28 23:29N 54°31' E 018°33'0 0.0
2020-Jul-28 19:29N 54°31' E 018°33'0 0.0
2020-Jul-28 16:59N 54°31' E 018°33'0 0.0
2020-Jul-28 14:59N 54°31' E 018°33'0 0.0
2020-Jul-28 12:59N 54°31' E 018°33'0 0.0
2020-Jul-28 11:29N 54°31' E 018°33'0 0.0
2020-Jul-28 10:59N 54°31' E 018°33'0 0.0
2020-Jul-28 10:29N 54°31' E 018°33'0 0.0
2020-Jul-28 09:29N 54°31' E 018°33'  

Dump ship's entire track history